createdAt,value
2019-03-24T00:02:41.572Z,52.40
2019-03-24T00:05:47.549Z,51.90
2019-03-24T00:08:53.212Z,55.70
2019-03-24T00:11:59.071Z,51.73
2019-03-24T00:15:05.314Z,58.90
2019-03-24T00:18:10.991Z,53.40
2019-03-24T00:21:16.845Z,54.47
2019-03-24T00:24:22.544Z,51.83
2019-03-24T00:27:28.404Z,50.00
2019-03-24T00:30:34.094Z,54.77
2019-03-24T00:33:39.733Z,51.60
2019-03-24T00:36:45.381Z,47.90
2019-03-24T00:39:50.992Z,52.27
2019-03-24T00:42:56.665Z,54.30
2019-03-24T00:46:02.316Z,52.13
2019-03-24T00:49:08.017Z,54.43
2019-03-24T00:52:13.751Z,45.47
2019-03-24T00:55:19.489Z,52.83
2019-03-24T00:58:25.235Z,56.37
2019-03-24T01:01:30.896Z,47.17
2019-03-24T01:04:36.694Z,53.60
2019-03-24T01:07:42.452Z,52.77
2019-03-24T01:10:48.125Z,56.30
2019-03-24T01:13:53.819Z,54.13
2019-03-24T01:16:59.456Z,55.70
2019-03-24T01:20:05.553Z,52.73
2019-03-24T01:23:11.212Z,48.30
2019-03-24T01:26:16.932Z,53.20
2019-03-24T01:29:22.572Z,50.23
2019-03-24T01:32:28.244Z,58.80
2019-03-24T01:35:33.953Z,53.60
2019-03-24T01:38:39.679Z,53.20
2019-03-24T01:41:45.366Z,52.90
2019-03-24T01:44:51.082Z,47.60
2019-03-24T01:47:56.770Z,49.13
2019-03-24T01:51:02.453Z,47.57
2019-03-24T01:54:08.084Z,49.93
2019-03-24T01:57:13.814Z,51.10
2019-03-24T02:00:19.491Z,50.13
2019-03-24T02:03:25.143Z,52.37
2019-03-24T02:06:30.838Z,49.50
2019-03-24T02:09:36.511Z,44.20
2019-03-24T02:12:42.183Z,45.20
2019-03-24T02:15:47.888Z,48.93
2019-03-24T02:18:53.557Z,44.33
2019-03-24T02:21:59.242Z,53.80
2019-03-24T02:25:05.407Z,51.67
2019-03-24T02:28:11.106Z,53.37
2019-03-24T02:31:17.854Z,54.23
2019-03-24T02:34:23.739Z,57.07
2019-03-24T02:37:29.402Z,55.87
2019-03-24T02:40:35.116Z,50.73
2019-03-24T02:43:40.874Z,47.57
2019-03-24T02:46:46.615Z,60.63
2019-03-24T02:49:52.339Z,49.30
2019-03-24T02:52:58.082Z,49.87
2019-03-24T02:56:03.803Z,54.60
2019-03-24T02:59:09.516Z,52.03
2019-03-24T03:02:15.184Z,63.73
2019-03-24T03:05:20.909Z,49.03
2019-03-24T03:08:26.541Z,64.80
2019-03-24T03:11:32.272Z,57.90
2019-03-24T03:14:37.891Z,56.33
2019-03-24T03:17:43.631Z,52.43
2019-03-24T03:20:49.358Z,54.83
2019-03-24T03:23:55.042Z,50.33
2019-03-24T03:27:00.745Z,51.47
2019-03-24T03:30:07.576Z,54.43
2019-03-24T03:33:13.244Z,44.70
2019-03-24T03:36:18.944Z,50.07
2019-03-24T03:39:24.578Z,46.53
2019-03-24T03:42:30.531Z,49.83
2019-03-24T03:45:39.137Z,52.33
2019-03-24T03:48:43.527Z,52.23
2019-03-24T03:51:49.140Z,50.17
2019-03-24T03:54:54.853Z,49.33
2019-03-24T03:58:00.498Z,55.00
2019-03-24T04:01:06.201Z,48.17
2019-03-24T04:04:11.813Z,53.27
2019-03-24T04:07:17.583Z,48.43
2019-03-24T04:10:24.425Z,49.93
2019-03-24T04:13:30.137Z,49.30
2019-03-24T04:16:35.793Z,50.80
2019-03-24T04:19:41.470Z,53.03
2019-03-24T04:22:47.107Z,52.73
2019-03-24T04:25:52.773Z,56.37
2019-03-24T04:28:58.490Z,49.67
2019-03-24T04:32:04.136Z,52.20
2019-03-24T04:35:10.206Z,46.80
2019-03-24T04:38:15.906Z,48.33
2019-03-24T04:41:21.583Z,52.97
2019-03-24T04:44:27.283Z,54.17
2019-03-24T04:47:32.950Z,48.13
2019-03-24T04:50:38.654Z,52.47
2019-03-24T04:53:44.327Z,60.53
2019-03-24T04:56:50.011Z,54.33
2019-03-24T04:59:55.750Z,52.60
2019-03-24T05:03:01.430Z,56.83
2019-03-24T05:06:07.670Z,54.90
2019-03-24T05:09:13.380Z,54.73
2019-03-24T05:12:19.007Z,50.90
2019-03-24T05:15:24.767Z,51.33
2019-03-24T05:18:30.480Z,50.33
2019-03-24T05:21:36.191Z,58.17
2019-03-24T05:24:41.830Z,52.80
2019-03-24T05:27:47.526Z,54.83
2019-03-24T05:30:53.272Z,45.67
2019-03-24T05:33:58.983Z,44.87
2019-03-24T05:37:04.707Z,48.43
2019-03-24T05:40:10.559Z,46.83
2019-03-24T05:43:16.274Z,50.13
2019-03-24T05:46:21.947Z,44.03
2019-03-24T05:49:27.673Z,54.70
2019-03-24T05:52:33.382Z,43.07
2019-03-24T05:55:39.227Z,45.63
2019-03-24T05:58:44.926Z,48.40
2019-03-24T06:01:51.658Z,46.07
2019-03-24T06:04:57.375Z,48.63
2019-03-24T06:08:03.092Z,48.00
2019-03-24T06:11:08.871Z,47.87
2019-03-24T06:14:14.591Z,46.73
2019-03-24T06:17:20.277Z,45.33
2019-03-24T06:20:25.980Z,43.73
2019-03-24T06:23:31.709Z,48.37
2019-03-24T06:26:37.364Z,45.30
2019-03-24T06:29:43.027Z,39.30
2019-03-24T06:32:48.691Z,41.17
2019-03-24T06:35:54.431Z,42.73
2019-03-24T06:39:00.231Z,45.43
2019-03-24T06:42:05.901Z,44.47
2019-03-24T06:45:11.623Z,62.87
2019-03-24T06:48:17.455Z,48.17
2019-03-24T06:51:23.175Z,46.93
2019-03-24T06:54:28.923Z,42.37
2019-03-24T06:57:34.616Z,47.63
2019-03-24T07:00:40.251Z,36.13
2019-03-24T07:03:45.945Z,38.43
2019-03-24T07:06:51.628Z,34.80
2019-03-24T07:09:57.458Z,42.33
2019-03-24T07:13:03.175Z,37.07
2019-03-24T07:16:08.889Z,39.57
2019-03-24T07:19:14.715Z,40.03
2019-03-24T07:22:22.294Z,44.30
2019-03-24T07:25:27.939Z,39.67
2019-03-24T07:28:33.650Z,41.37
2019-03-24T07:31:39.358Z,35.40
2019-03-24T07:34:45.054Z,38.40
2019-03-24T07:37:50.759Z,40.33
2019-03-24T07:40:56.415Z,39.33
2019-03-24T07:44:02.113Z,35.70
2019-03-24T07:47:13.442Z,41.50
2019-03-24T07:50:19.133Z,35.90
2019-03-24T07:53:24.921Z,36.60
2019-03-24T07:56:30.722Z,35.90
2019-03-24T07:59:36.406Z,34.97
2019-03-24T08:02:51.478Z,41.90
2019-03-24T08:05:57.185Z,36.57
2019-03-24T08:09:04.373Z,46.27
2019-03-24T08:12:10.090Z,39.73
2019-03-24T08:15:15.828Z,35.27
2019-03-24T08:18:29.488Z,34.53
2019-03-24T08:21:29.005Z,37.10
2019-03-24T08:24:34.779Z,36.07
2019-03-24T08:27:40.558Z,35.27
2019-03-24T08:30:46.264Z,33.67
2019-03-24T08:33:51.887Z,37.50
2019-03-24T08:36:57.570Z,32.00
2019-03-24T08:40:03.302Z,33.70
2019-03-24T08:43:09.048Z,32.03
2019-03-24T08:46:16.387Z,35.33
2019-03-24T08:49:22.651Z,33.97
2019-03-24T08:52:28.912Z,32.50
2019-03-24T08:55:34.633Z,35.17
2019-03-24T08:58:40.324Z,38.30
2019-03-24T09:01:46.042Z,34.50
2019-03-24T09:04:51.802Z,32.70
2019-03-24T09:07:57.521Z,48.80
2019-03-24T09:11:03.195Z,35.43
2019-03-24T09:14:08.986Z,31.63
2019-03-24T09:17:14.670Z,35.63
2019-03-24T09:20:20.328Z,35.87
2019-03-24T09:23:26.016Z,35.53
2019-03-24T09:26:31.803Z,38.00
2019-03-24T09:29:37.540Z,33.77
2019-03-24T09:32:43.275Z,36.63
2019-03-24T09:35:48.954Z,39.00
2019-03-24T09:38:54.672Z,37.47
2019-03-24T09:42:00.377Z,36.80
2019-03-24T09:45:06.366Z,33.33
2019-03-24T09:48:12.067Z,39.43
2019-03-24T09:51:17.750Z,36.07
2019-03-24T09:54:23.432Z,38.57
2019-03-24T09:57:29.154Z,38.47
2019-03-24T10:00:34.805Z,41.13
2019-03-24T10:03:40.598Z,37.87
2019-03-24T10:06:46.266Z,38.17
2019-03-24T10:09:51.986Z,43.60
2019-03-24T10:12:57.649Z,42.73
2019-03-24T10:16:03.370Z,41.30
2019-03-24T10:19:13.853Z,41.77
2019-03-24T10:22:16.491Z,38.30
2019-03-24T10:25:22.265Z,44.80
2019-03-24T10:28:28.037Z,47.70
2019-03-24T10:31:33.736Z,39.77
2019-03-24T10:34:39.774Z,41.97
2019-03-24T10:37:45.447Z,42.90
2019-03-24T10:40:51.164Z,39.10
2019-03-24T10:43:56.915Z,42.63
2019-03-24T10:47:02.718Z,41.07
2019-03-24T10:50:10.675Z,38.37
2019-03-24T10:53:16.347Z,40.07
2019-03-24T10:56:22.563Z,41.80
2019-03-24T10:59:28.396Z,42.87
2019-03-24T11:02:34.116Z,39.50
2019-03-24T11:05:41.082Z,44.20
2019-03-24T11:08:46.833Z,42.53
2019-03-24T11:11:52.512Z,43.60
2019-03-24T11:14:58.237Z,40.10
2019-03-24T11:18:03.945Z,43.13
2019-03-24T11:21:09.595Z,45.53
2019-03-24T11:24:15.357Z,41.80
2019-03-24T11:27:21.052Z,44.80
2019-03-24T11:30:26.724Z,46.60
2019-03-24T11:33:32.456Z,44.70
2019-03-24T11:36:38.123Z,40.40
2019-03-24T11:39:44.754Z,42.03
2019-03-24T11:42:50.358Z,47.80
2019-03-24T11:45:56.071Z,45.67
2019-03-24T11:49:01.771Z,44.17
2019-03-24T11:52:07.564Z,44.03
2019-03-24T11:55:13.367Z,43.30
2019-03-24T11:58:19.171Z,42.07
2019-03-24T12:01:24.912Z,44.07
2019-03-24T12:04:30.660Z,42.10
2019-03-24T12:07:36.423Z,47.97
2019-03-24T12:10:42.101Z,43.63
2019-03-24T12:13:47.818Z,45.67
2019-03-24T12:16:53.496Z,47.23
2019-03-24T12:19:59.197Z,42.63
2019-03-24T12:23:04.933Z,42.70
2019-03-24T12:26:10.572Z,40.87
2019-03-24T12:29:16.285Z,42.53
2019-03-24T12:32:22.010Z,42.93
2019-03-24T12:35:27.701Z,44.53
2019-03-24T12:38:33.486Z,42.37
2019-03-24T12:41:39.185Z,42.73
2019-03-24T12:44:44.854Z,40.07
2019-03-24T12:47:50.588Z,42.27
2019-03-24T12:50:56.294Z,42.33
2019-03-24T12:54:02.046Z,43.07
2019-03-24T12:57:07.743Z,40.83
2019-03-24T13:00:13.947Z,39.90
2019-03-24T13:03:19.775Z,41.53
2019-03-24T13:06:25.570Z,38.70
2019-03-24T13:09:33.598Z,43.90
2019-03-24T13:12:38.790Z,39.93
2019-03-24T13:15:44.543Z,49.07
2019-03-24T13:18:50.316Z,43.07
2019-03-24T13:21:55.985Z,41.37
2019-03-24T13:25:01.824Z,39.47
2019-03-24T13:28:07.561Z,42.80
2019-03-24T13:31:13.309Z,40.20
2019-03-24T13:34:18.982Z,35.27
2019-03-24T13:37:24.626Z,34.57
2019-03-24T13:40:30.357Z,38.00
2019-03-24T13:43:36.053Z,40.83
2019-03-24T13:46:41.852Z,37.23
2019-03-24T13:49:47.584Z,37.83
2019-03-24T13:52:53.322Z,35.13
2019-03-24T13:55:59.001Z,34.60
2019-03-24T13:59:04.733Z,39.60
2019-03-24T14:02:10.807Z,38.67
2019-03-24T14:05:16.832Z,39.47
2019-03-24T14:08:22.523Z,37.90
2019-03-24T14:11:28.218Z,36.97
2019-03-24T14:14:33.982Z,39.77
2019-03-24T14:17:39.660Z,39.57
2019-03-24T14:20:45.468Z,37.33
2019-03-24T14:23:51.105Z,37.57
2019-03-24T14:26:56.911Z,36.73
2019-03-24T14:30:02.643Z,39.40
2019-03-24T14:33:08.447Z,37.50
2019-03-24T14:36:14.143Z,35.63
2019-03-24T14:39:19.830Z,38.63
2019-03-24T14:42:25.548Z,32.77
2019-03-24T14:45:31.290Z,38.57
2019-03-24T14:48:37.151Z,33.23
2019-03-24T14:51:42.884Z,33.37
2019-03-24T14:54:48.628Z,35.07
2019-03-24T14:57:54.304Z,33.70
2019-03-24T15:00:59.991Z,34.93
2019-03-24T15:04:05.775Z,35.63
2019-03-24T15:07:11.487Z,33.03
2019-03-24T15:10:18.209Z,39.93
2019-03-24T15:13:23.820Z,34.43
2019-03-24T15:16:29.678Z,46.63
2019-03-24T15:19:35.399Z,30.67
2019-03-24T15:22:41.137Z,38.63
2019-03-24T15:25:46.988Z,35.03
2019-03-24T15:28:52.727Z,33.17
2019-03-24T15:31:58.518Z,34.67
2019-03-24T15:35:04.460Z,32.83
2019-03-24T15:38:10.367Z,32.40
2019-03-24T15:41:18.298Z,32.13
2019-03-24T15:44:23.805Z,29.10
2019-03-24T15:47:29.537Z,30.50
2019-03-24T15:50:35.340Z,30.40
2019-03-24T15:53:41.086Z,33.63
2019-03-24T15:56:46.891Z,27.73
2019-03-24T15:59:52.602Z,26.17
2019-03-24T16:02:58.433Z,28.03
2019-03-24T16:06:04.131Z,28.13
2019-03-24T16:09:09.983Z,23.80
2019-03-24T16:12:15.738Z,22.87
2019-03-24T16:15:21.394Z,22.77
2019-03-24T16:18:27.227Z,22.17
2019-03-24T16:21:33.935Z,21.03
2019-03-24T16:24:39.713Z,17.77
2019-03-24T16:27:45.423Z,17.97
2019-03-24T16:30:51.122Z,16.63
2019-03-24T16:33:56.781Z,18.63
2019-03-24T16:37:02.586Z,17.67
2019-03-24T16:40:08.513Z,17.17
2019-03-24T16:43:14.393Z,19.20
2019-03-24T16:46:20.203Z,18.87
2019-03-24T16:49:25.975Z,15.70
2019-03-24T16:52:31.806Z,14.47
2019-03-24T16:55:37.526Z,17.57
2019-03-24T16:58:43.205Z,19.70
2019-03-24T17:01:48.895Z,17.57
2019-03-24T17:04:54.657Z,16.47
2019-03-24T17:08:00.393Z,18.37
2019-03-24T17:11:06.178Z,16.77
2019-03-24T17:14:11.885Z,16.90
2019-03-24T17:17:17.668Z,15.83
2019-03-24T17:20:23.394Z,16.17
2019-03-24T17:23:29.173Z,14.93
2019-03-24T17:26:34.970Z,13.43
2019-03-24T17:29:40.802Z,16.63
2019-03-24T17:32:46.531Z,17.23
2019-03-24T17:35:52.237Z,15.33
2019-03-24T17:38:58.238Z,17.63
2019-03-24T17:42:04.069Z,15.53
2019-03-24T17:45:10.635Z,17.50
2019-03-24T17:48:16.429Z,14.43
2019-03-24T17:51:22.171Z,17.63
2019-03-24T17:54:27.978Z,23.47
2019-03-24T17:57:33.729Z,15.80
2019-03-24T18:00:45.950Z,15.07
2019-03-24T18:03:51.655Z,13.83
2019-03-24T18:06:57.440Z,15.03
2019-03-24T18:10:03.108Z,15.10
2019-03-24T18:13:08.839Z,12.10
2019-03-24T18:16:14.609Z,14.93
2019-03-24T18:19:20.431Z,14.33
2019-03-24T18:22:26.215Z,9.97
2019-03-24T18:25:31.956Z,10.03
2019-03-24T18:28:37.628Z,11.63
2019-03-24T18:31:43.421Z,9.53
2019-03-24T18:34:49.293Z,13.33
2019-03-24T18:37:55.095Z,13.10
2019-03-24T18:41:00.809Z,13.67
2019-03-24T18:44:06.659Z,11.13
2019-03-24T18:47:12.393Z,10.50
2019-03-24T18:50:18.150Z,8.93
2019-03-24T18:53:26.009Z,9.97
2019-03-24T18:56:31.396Z,7.47
2019-03-24T18:59:37.067Z,12.50
2019-03-24T19:02:42.769Z,15.43
2019-03-24T19:05:49.823Z,11.10
2019-03-24T19:08:55.609Z,10.17
2019-03-24T19:12:01.320Z,5.60
2019-03-24T19:15:08.007Z,10.37
2019-03-24T19:18:13.684Z,10.83
2019-03-24T19:21:19.782Z,11.43
2019-03-24T19:24:25.519Z,11.00
2019-03-24T19:27:31.266Z,12.93
2019-03-24T19:30:45.909Z,14.20
2019-03-24T19:33:51.666Z,12.60
2019-03-24T19:36:58.433Z,18.93
2019-03-24T19:40:04.266Z,169.73
2019-03-24T19:43:09.978Z,18.57
2019-03-24T19:46:15.724Z,21.73
2019-03-24T19:49:21.496Z,9.57
2019-03-24T19:52:27.277Z,11.30
2019-03-24T19:55:33.105Z,12.80
2019-03-24T19:58:38.882Z,15.97
2019-03-24T20:01:44.665Z,13.97
2019-03-24T20:04:51.480Z,11.13
2019-03-24T20:07:57.415Z,13.10
2019-03-24T20:11:03.075Z,13.33
2019-03-24T20:14:08.864Z,14.43
2019-03-24T20:17:14.548Z,11.30
2019-03-24T20:20:20.334Z,14.50
2019-03-24T20:23:26.053Z,10.17
2019-03-24T20:26:31.765Z,20.97
2019-03-24T20:29:37.489Z,20.63
2019-03-24T20:32:43.258Z,17.67
2019-03-24T20:35:50.010Z,18.67
2019-03-24T20:38:55.844Z,17.40
2019-03-24T20:42:01.594Z,19.23
2019-03-24T20:45:07.649Z,15.67
2019-03-24T20:48:13.463Z,17.43
2019-03-24T20:51:19.238Z,20.27
2019-03-24T20:54:25.110Z,18.80
2019-03-24T20:57:30.817Z,19.07
2019-03-24T21:00:37.293Z,16.70
2019-03-24T21:03:43.086Z,17.97
2019-03-24T21:06:48.807Z,21.93
2019-03-24T21:09:54.641Z,19.03
2019-03-24T21:13:00.539Z,21.63
2019-03-24T21:16:06.267Z,19.50
2019-03-24T21:19:12.102Z,23.17
2019-03-24T21:22:17.931Z,20.20
2019-03-24T21:25:23.671Z,23.00
2019-03-24T21:28:29.411Z,20.60
2019-03-24T21:31:35.145Z,24.37
2019-03-24T21:34:40.850Z,23.03
2019-03-24T21:37:46.599Z,26.40
2019-03-24T21:40:52.354Z,22.73
2019-03-24T21:43:58.034Z,26.90
2019-03-24T21:47:03.903Z,23.57
2019-03-24T21:50:09.897Z,22.10
2019-03-24T21:53:15.681Z,16.53
2019-03-24T21:56:21.384Z,18.13
2019-03-24T21:59:27.126Z,16.80
2019-03-24T22:02:32.910Z,14.03
2019-03-24T22:05:38.701Z,14.97
2019-03-24T22:08:44.502Z,15.90
2019-03-24T22:11:50.216Z,17.87
2019-03-24T22:14:55.920Z,17.77
2019-03-24T22:18:01.751Z,14.07
2019-03-24T22:21:08.696Z,14.40
2019-03-24T22:24:14.451Z,13.70
2019-03-24T22:27:20.173Z,13.63
2019-03-24T22:30:25.905Z,12.00
2019-03-24T22:33:31.611Z,15.30
2019-03-24T22:36:37.343Z,14.70
2019-03-24T22:39:43.048Z,11.83
2019-03-24T22:42:48.718Z,13.90
2019-03-24T22:45:54.411Z,14.13
2019-03-24T22:49:00.078Z,12.57
2019-03-24T22:52:07.438Z,11.33
2019-03-24T22:55:13.595Z,11.47
2019-03-24T22:58:19.324Z,9.27
2019-03-24T23:01:26.260Z,10.40
2019-03-24T23:04:32.102Z,14.37
2019-03-24T23:07:37.811Z,14.77
2019-03-24T23:10:43.420Z,10.63
2019-03-24T23:13:49.165Z,11.63
2019-03-24T23:16:54.874Z,10.30
2019-03-24T23:20:00.605Z,11.90
2019-03-24T23:23:06.435Z,10.80
2019-03-24T23:26:12.147Z,10.30
2019-03-24T23:29:17.931Z,8.67
2019-03-24T23:32:23.584Z,11.57
2019-03-24T23:35:29.370Z,11.23
2019-03-24T23:38:35.169Z,9.80
2019-03-24T23:41:40.982Z,14.57
2019-03-24T23:44:46.717Z,9.70
2019-03-24T23:47:52.357Z,11.17
2019-03-24T23:50:58.021Z,7.73
2019-03-24T23:54:03.733Z,10.87
2019-03-24T23:57:09.372Z,10.87
